createdAt,value
2023-10-09T00:02:13.535Z,14.29
2023-10-09T00:04:43.576Z,14.27
2023-10-09T00:07:11.696Z,14.24
2023-10-09T00:09:49.393Z,14.03
2023-10-09T00:12:24.714Z,14.22
2023-10-09T00:15:10.154Z,14.18
2023-10-09T00:17:39.364Z,14.19
2023-10-09T00:20:19.029Z,14.03
2023-10-09T00:22:47.717Z,13.98
2023-10-09T00:25:23.334Z,14.00
2023-10-09T00:27:50.444Z,14.05
2023-10-09T00:30:31.219Z,14.03
2023-10-09T00:33:08.580Z,14.07
2023-10-09T00:35:45.765Z,13.97
2023-10-09T00:38:21.739Z,13.80
2023-10-09T00:40:58.587Z,13.99
2023-10-09T00:43:29.770Z,14.06
2023-10-09T00:46:04.188Z,14.06
2023-10-09T00:48:34.291Z,13.79
2023-10-09T00:51:01.989Z,13.97
2023-10-09T00:53:32.466Z,14.02
2023-10-09T00:56:05.943Z,14.04
2023-10-09T00:58:37.330Z,13.74
2023-10-09T01:01:06.277Z,14.01
2023-10-09T01:03:35.103Z,14.05
2023-10-09T01:06:10.107Z,14.17
2023-10-09T01:08:41.895Z,13.98
2023-10-09T01:11:11.623Z,14.09
2023-10-09T01:13:51.820Z,14.11
2023-10-09T01:16:20.390Z,14.07
2023-10-09T01:18:52.395Z,13.98
2023-10-09T01:21:26.039Z,14.10
2023-10-09T01:24:11.636Z,13.93
2023-10-09T01:26:41.190Z,13.90
2023-10-09T01:29:20.385Z,14.08
2023-10-09T01:31:56.582Z,13.96
2023-10-09T01:34:50.690Z,14.17
2023-10-09T01:37:30.403Z,14.12
2023-10-09T01:40:00.516Z,14.18
2023-10-09T01:42:31.467Z,14.09
2023-10-09T01:45:24.804Z,14.10
2023-10-09T01:47:56.417Z,14.20
2023-10-09T01:50:28.720Z,14.19
2023-10-09T01:52:56.016Z,14.13
2023-10-09T01:55:30.551Z,14.09
2023-10-09T01:58:07.369Z,14.02
2023-10-09T02:00:42.953Z,14.08
2023-10-09T02:03:14.401Z,14.04
2023-10-09T02:05:43.542Z,13.96
2023-10-09T02:08:11.656Z,13.98
2023-10-09T02:10:40.791Z,13.93
2023-10-09T02:13:10.468Z,13.95
2023-10-09T02:15:47.257Z,14.02
2023-10-09T02:18:25.142Z,14.09
2023-10-09T02:21:13.881Z,14.04
2023-10-09T02:23:41.340Z,14.01
2023-10-09T02:26:20.832Z,13.85
2023-10-09T02:29:00.186Z,13.75
2023-10-09T02:31:34.799Z,13.67
2023-10-09T02:34:07.136Z,13.69
2023-10-09T02:36:39.706Z,13.73
2023-10-09T02:39:07.773Z,13.81
2023-10-09T02:41:35.838Z,13.51
2023-10-09T02:44:12.709Z,13.84
2023-10-09T02:46:41.540Z,13.63
2023-10-09T02:49:11.157Z,13.71
2023-10-09T02:51:49.576Z,13.75
2023-10-09T02:54:20.354Z,13.70
2023-10-09T02:57:07.181Z,13.65
2023-10-09T02:59:34.962Z,13.67
2023-10-09T03:02:02.150Z,13.51
2023-10-09T03:04:30.974Z,13.60
2023-10-09T03:07:02.035Z,13.30
2023-10-09T03:09:29.560Z,13.56
2023-10-09T03:12:05.229Z,13.45
2023-10-09T03:14:33.661Z,13.66
2023-10-09T03:17:00.669Z,13.61
2023-10-09T03:19:29.640Z,13.57
2023-10-09T03:21:58.799Z,13.43
2023-10-09T03:24:28.655Z,13.53
2023-10-09T03:26:59.581Z,13.52
2023-10-09T03:29:28.826Z,13.19
2023-10-09T03:31:58.171Z,13.47
2023-10-09T03:34:25.234Z,13.40
2023-10-09T03:37:12.668Z,13.49
2023-10-09T03:39:48.414Z,13.34
2023-10-09T03:42:21.861Z,13.30
2023-10-09T03:44:55.498Z,13.26
2023-10-09T03:47:23.885Z,13.40
2023-10-09T03:49:55.616Z,13.46
2023-10-09T03:52:27.454Z,13.37
2023-10-09T03:54:56.049Z,13.36
2023-10-09T03:57:24.746Z,13.29
2023-10-09T03:59:53.236Z,13.36
2023-10-09T04:02:23.575Z,13.21
2023-10-09T04:04:53.264Z,13.26
2023-10-09T04:07:20.597Z,13.21
2023-10-09T04:09:52.412Z,13.11
2023-10-09T04:12:23.071Z,12.96
2023-10-09T04:14:50.211Z,13.26
2023-10-09T04:17:23.109Z,13.27
2023-10-09T04:20:10.832Z,13.30
2023-10-09T04:23:02.634Z,13.18
2023-10-09T04:25:43.397Z,13.25
2023-10-09T04:28:20.306Z,13.27
2023-10-09T04:30:48.725Z,13.20
2023-10-09T04:33:42.526Z,13.28
2023-10-09T04:36:33.518Z,13.25
2023-10-09T04:39:03.178Z,13.25
2023-10-09T04:41:34.853Z,13.24
2023-10-09T04:44:20.755Z,13.00
2023-10-09T04:47:11.256Z,13.28
2023-10-09T04:49:49.573Z,13.18
2023-10-09T04:52:26.451Z,13.14
2023-10-09T04:55:09.049Z,13.14
2023-10-09T04:57:46.716Z,13.18
2023-10-09T05:00:28.905Z,13.17
2023-10-09T05:03:00.292Z,13.10
2023-10-09T05:05:49.430Z,12.98
2023-10-09T05:08:29.880Z,12.98
2023-10-09T05:10:59.358Z,13.06
2023-10-09T05:13:42.292Z,13.03
2023-10-09T05:16:20.069Z,12.98
2023-10-09T05:18:57.979Z,12.97
2023-10-09T05:21:33.192Z,12.94
2023-10-09T05:24:15.437Z,12.92
2023-10-09T05:26:52.443Z,13.00
2023-10-09T05:29:29.792Z,12.97
2023-10-09T05:31:56.995Z,13.10
2023-10-09T05:34:59.885Z,12.93
2023-10-09T05:37:35.056Z,13.14
2023-10-09T05:40:17.414Z,13.13
2023-10-09T05:42:59.287Z,13.31
2023-10-09T05:45:46.856Z,13.36
2023-10-09T05:48:14.152Z,13.34
2023-10-09T05:50:56.456Z,13.13
2023-10-09T05:53:42.109Z,13.45
2023-10-09T05:56:27.598Z,13.33
2023-10-09T05:59:13.727Z,13.37
2023-10-09T06:01:59.403Z,13.58
2023-10-09T06:04:46.791Z,13.63
2023-10-09T06:07:14.773Z,13.75
2023-10-09T06:09:51.718Z,13.62
2023-10-09T06:12:54.001Z,13.57
2023-10-09T06:15:34.467Z,13.66
2023-10-09T06:18:21.671Z,13.39
2023-10-09T06:21:07.979Z,13.42
2023-10-09T06:23:58.049Z,13.69
2023-10-09T06:26:25.569Z,13.66
2023-10-09T06:29:13.376Z,13.68
2023-10-09T06:31:59.195Z,13.52
2023-10-09T06:34:37.065Z,13.68
2023-10-09T06:37:27.212Z,13.73
2023-10-09T06:39:58.125Z,13.69
2023-10-09T06:42:41.062Z,13.78
2023-10-09T06:45:16.364Z,13.81
2023-10-09T06:47:57.656Z,13.88
2023-10-09T06:50:48.313Z,14.01
2023-10-09T06:53:16.455Z,13.81
2023-10-09T06:55:50.606Z,13.92
2023-10-09T06:58:24.109Z,13.77
2023-10-09T07:01:01.061Z,13.82
2023-10-09T07:03:37.880Z,13.96
2023-10-09T07:06:25.828Z,13.71
2023-10-09T07:09:06.630Z,13.90
2023-10-09T07:11:40.973Z,14.11
2023-10-09T07:14:31.342Z,14.12
2023-10-09T07:17:17.472Z,14.09
2023-10-09T07:19:48.534Z,14.09
2023-10-09T07:22:22.263Z,14.04
2023-10-09T07:25:13.152Z,14.06
2023-10-09T07:28:01.377Z,14.20
2023-10-09T07:30:31.222Z,14.38
2023-10-09T07:33:12.182Z,14.49
2023-10-09T07:35:44.805Z,14.44
2023-10-09T07:38:21.828Z,14.47
2023-10-09T07:41:08.510Z,14.59
2023-10-09T07:43:40.782Z,14.59
2023-10-09T07:46:27.591Z,14.78
2023-10-09T07:48:59.147Z,14.76
2023-10-09T07:51:32.317Z,14.74
2023-10-09T07:54:10.115Z,14.79
2023-10-09T07:57:01.667Z,14.65
2023-10-09T07:59:32.598Z,14.68
2023-10-09T08:02:06.501Z,14.79
2023-10-09T08:04:39.900Z,14.65
2023-10-09T08:08:02.065Z,14.61
2023-10-09T08:10:22.556Z,15.02
2023-10-09T08:12:52.156Z,14.89
2023-10-09T08:15:20.114Z,14.76
2023-10-09T08:18:16.741Z,14.95
2023-10-09T08:21:12.591Z,14.99
2023-10-09T08:23:51.660Z,15.00
2023-10-09T08:26:34.191Z,15.20
2023-10-09T08:29:27.165Z,15.34
2023-10-09T08:31:58.427Z,15.35
2023-10-09T08:36:56.378Z,15.35
2023-10-09T08:39:26.865Z,15.21
2023-10-09T08:41:56.017Z,15.41
2023-10-09T08:44:26.285Z,15.53
2023-10-09T08:46:55.722Z,15.75
2023-10-09T08:49:25.392Z,15.65
2023-10-09T08:51:53.939Z,15.86
2023-10-09T08:54:21.149Z,15.92
2023-10-09T08:56:51.824Z,15.81
2023-10-09T08:59:20.817Z,16.00
2023-10-09T09:01:53.286Z,16.04
2023-10-09T09:04:41.432Z,16.17
2023-10-09T09:07:40.490Z,16.23
2023-10-09T09:10:22.705Z,16.17
2023-10-09T09:12:54.744Z,15.82
2023-10-09T09:15:22.883Z,16.14
2023-10-09T09:17:50.882Z,16.05
2023-10-09T09:20:35.865Z,16.12
2023-10-09T09:23:06.101Z,15.99
2023-10-09T09:25:49.351Z,16.06
2023-10-09T09:28:23.197Z,16.30
2023-10-09T09:30:53.190Z,16.26
2023-10-09T09:33:41.923Z,16.40
2023-10-09T09:36:08.986Z,16.51
2023-10-09T09:38:49.426Z,16.43
2023-10-09T09:41:27.620Z,16.64
2023-10-09T09:44:01.907Z,16.50
2023-10-09T09:46:37.360Z,16.72
2023-10-09T09:49:20.716Z,16.75
2023-10-09T09:51:48.354Z,16.87
2023-10-09T09:54:19.577Z,17.13
2023-10-09T09:56:53.609Z,16.97
2023-10-09T09:59:28.663Z,16.79
2023-10-09T10:02:08.371Z,17.30
2023-10-09T10:04:40.352Z,17.41
2023-10-09T10:07:12.798Z,17.42
2023-10-09T10:09:46.335Z,17.44
2023-10-09T10:12:15.563Z,17.25
2023-10-09T10:15:06.962Z,17.47
2023-10-09T10:18:02.488Z,17.57
2023-10-09T10:20:32.635Z,17.19
2023-10-09T10:23:27.061Z,17.55
2023-10-09T10:26:02.025Z,17.49
2023-10-09T10:28:47.038Z,17.42
2023-10-09T10:31:15.258Z,17.46
2023-10-09T10:33:57.645Z,17.61
2023-10-09T10:36:26.405Z,17.49
2023-10-09T10:39:23.140Z,17.00
2023-10-09T10:42:00.332Z,17.20
2023-10-09T10:44:43.764Z,17.47
2023-10-09T10:47:26.505Z,17.48
2023-10-09T10:50:00.588Z,17.22
2023-10-09T10:52:43.794Z,17.71
2023-10-09T10:55:19.454Z,17.85
2023-10-09T10:58:02.463Z,17.84
2023-10-09T11:00:49.072Z,17.98
2023-10-09T11:03:37.163Z,17.76
2023-10-09T11:06:16.866Z,17.84
2023-10-09T11:08:56.355Z,17.67
2023-10-09T11:11:24.492Z,17.99
2023-10-09T11:13:59.111Z,18.01
2023-10-09T11:16:45.723Z,18.24
2023-10-09T11:19:29.152Z,17.96
2023-10-09T11:22:15.450Z,17.86
2023-10-09T11:24:44.763Z,18.24
2023-10-09T11:27:20.172Z,18.38
2023-10-09T11:29:50.561Z,18.31
2023-10-09T11:32:25.608Z,18.43
2023-10-09T11:35:11.083Z,18.44
2023-10-09T11:37:44.091Z,18.32
2023-10-09T11:41:06.147Z,18.47
2023-10-09T11:43:53.699Z,18.45
2023-10-09T11:46:52.997Z,18.40
2023-10-09T11:49:23.139Z,18.24
2023-10-09T11:52:08.889Z,18.57
2023-10-09T11:54:36.850Z,18.68
2023-10-09T11:57:04.804Z,18.39
2023-10-09T11:59:39.387Z,18.26
2023-10-09T12:02:18.316Z,18.58
2023-10-09T12:04:47.185Z,18.71
2023-10-09T12:07:14.406Z,18.77
2023-10-09T12:09:41.877Z,18.90
2023-10-09T12:12:12.535Z,18.63
2023-10-09T12:14:41.050Z,18.64
2023-10-09T12:17:09.486Z,18.98
2023-10-09T12:19:40.412Z,19.01
2023-10-09T12:22:12.053Z,18.89
2023-10-09T12:24:39.446Z,19.11
2023-10-09T12:27:12.427Z,18.43
2023-10-09T12:29:46.599Z,18.98
2023-10-09T12:32:15.227Z,18.59
2023-10-09T12:34:43.808Z,19.20
2023-10-09T12:37:10.901Z,19.24
2023-10-09T12:39:41.667Z,19.37
2023-10-09T12:42:10.098Z,19.40
2023-10-09T12:44:40.367Z,19.45
2023-10-09T12:47:08.774Z,19.44
2023-10-09T12:49:35.787Z,19.41
2023-10-09T12:52:02.881Z,19.31
2023-10-09T12:54:30.122Z,18.72
2023-10-09T12:56:59.317Z,19.19
2023-10-09T12:59:26.725Z,19.40
2023-10-09T13:01:54.269Z,19.39
2023-10-09T13:04:23.631Z,18.93
2023-10-09T13:06:55.049Z,19.21
2023-10-09T13:09:26.369Z,18.84
2023-10-09T13:11:53.198Z,19.25
2023-10-09T13:14:23.241Z,19.10
2023-10-09T13:16:54.295Z,19.30
2023-10-09T13:19:25.767Z,19.28
2023-10-09T13:21:53.238Z,19.23
2023-10-09T13:24:25.751Z,19.29
2023-10-09T13:26:54.545Z,19.47
2023-10-09T13:29:24.021Z,18.94
2023-10-09T13:31:54.168Z,19.49
2023-10-09T13:34:21.377Z,19.40
2023-10-09T13:36:54.593Z,19.49
2023-10-09T13:39:28.186Z,18.99
2023-10-09T13:42:00.861Z,19.38
2023-10-09T13:44:33.329Z,19.13
2023-10-09T13:47:02.967Z,19.13
2023-10-09T13:49:33.351Z,18.87
2023-10-09T13:52:05.107Z,18.86
2023-10-09T13:54:35.392Z,19.14
2023-10-09T13:57:07.538Z,19.14
2023-10-09T13:59:43.770Z,18.97
2023-10-09T14:02:18.296Z,18.91
2023-10-09T14:04:49.574Z,19.24
2023-10-09T14:07:18.634Z,19.09
2023-10-09T14:09:56.572Z,19.27
2023-10-09T14:12:26.381Z,18.59
2023-10-09T14:14:55.475Z,19.13
2023-10-09T14:17:29.628Z,19.26
2023-10-09T14:20:17.792Z,19.24
2023-10-09T14:22:46.752Z,19.19
2023-10-09T14:25:16.898Z,18.96
2023-10-09T14:27:44.083Z,19.12
2023-10-09T14:30:24.027Z,19.20
2023-10-09T14:32:57.353Z,19.17
2023-10-09T14:35:27.929Z,19.14
2023-10-09T14:37:55.295Z,19.23
2023-10-09T14:40:31.141Z,18.80
2023-10-09T14:42:59.307Z,18.53
2023-10-09T14:45:27.270Z,19.19
2023-10-09T14:47:55.466Z,18.50
2023-10-09T14:50:23.866Z,18.96
2023-10-09T14:52:54.156Z,19.08
2023-10-09T14:55:30.664Z,18.22
2023-10-09T14:58:00.527Z,18.96
2023-10-09T15:00:27.967Z,18.82
2023-10-09T15:02:55.055Z,18.88
2023-10-09T15:05:24.447Z,18.73
2023-10-09T15:07:54.053Z,18.65
2023-10-09T15:10:21.582Z,18.67
2023-10-09T15:12:51.151Z,18.55
2023-10-09T15:15:19.569Z,18.73
2023-10-09T15:17:49.541Z,18.70
2023-10-09T15:20:18.317Z,18.51
2023-10-09T15:22:46.371Z,18.52
2023-10-09T15:25:18.899Z,18.46
2023-10-09T15:27:46.089Z,18.06
2023-10-09T15:30:18.233Z,18.34
2023-10-09T15:32:45.757Z,17.88
2023-10-09T15:35:14.697Z,18.11
2023-10-09T15:37:44.007Z,18.08
2023-10-09T15:40:20.090Z,17.67
2023-10-09T15:42:51.596Z,17.53
2023-10-09T15:45:21.272Z,17.66
2023-10-09T15:47:52.852Z,17.58
2023-10-09T15:50:24.165Z,17.44
2023-10-09T15:52:55.476Z,17.39
2023-10-09T15:55:27.589Z,17.26
2023-10-09T15:57:55.952Z,17.21
2023-10-09T16:00:29.391Z,17.17
2023-10-09T16:02:56.650Z,17.05
2023-10-09T16:05:27.212Z,17.02
2023-10-09T16:07:56.111Z,16.92
2023-10-09T16:10:24.276Z,17.05
2023-10-09T16:12:54.131Z,17.01
2023-10-09T16:15:21.968Z,16.86
2023-10-09T16:17:50.477Z,16.74
2023-10-09T16:20:23.014Z,16.63
2023-10-09T16:22:51.011Z,16.71
2023-10-09T16:25:21.997Z,16.44
2023-10-09T16:27:49.353Z,16.36
2023-10-09T16:30:21.548Z,16.46
2023-10-09T16:32:49.375Z,16.14
2023-10-09T16:35:17.744Z,16.24
2023-10-09T16:37:44.745Z,16.31
2023-10-09T16:40:15.270Z,16.25
2023-10-09T16:42:43.710Z,16.17
2023-10-09T16:45:17.271Z,16.11
2023-10-09T16:47:48.564Z,15.45
2023-10-09T16:50:19.489Z,15.43
2023-10-09T16:52:46.880Z,15.86
2023-10-09T16:55:14.144Z,15.80
2023-10-09T16:57:42.581Z,15.74
2023-10-09T17:00:14.126Z,15.59
2023-10-09T17:02:42.144Z,15.63
2023-10-09T17:05:22.515Z,15.27
2023-10-09T17:07:50.348Z,15.53
2023-10-09T17:10:18.442Z,15.42
2023-10-09T17:12:47.977Z,15.32
2023-10-09T17:15:18.151Z,15.40
2023-10-09T17:17:51.999Z,15.35
2023-10-09T17:20:19.921Z,15.27
2023-10-09T17:22:47.660Z,15.19
2023-10-09T17:25:17.990Z,14.93
2023-10-09T17:27:45.397Z,14.48
2023-10-09T17:30:16.920Z,14.96
2023-10-09T17:32:47.659Z,14.85
2023-10-09T17:35:15.322Z,14.77
2023-10-09T17:37:42.812Z,14.64
2023-10-09T17:40:10.241Z,14.74
2023-10-09T17:42:37.419Z,14.71
2023-10-09T17:45:07.791Z,14.61
2023-10-09T17:47:38.184Z,14.55
2023-10-09T17:50:12.321Z,14.31
2023-10-09T17:52:40.048Z,14.28
2023-10-09T17:55:07.781Z,14.40
2023-10-09T17:57:35.558Z,14.33
2023-10-09T18:00:04.982Z,14.36
2023-10-09T18:02:33.035Z,14.28
2023-10-09T18:05:00.029Z,14.28
2023-10-09T18:07:28.083Z,14.34
2023-10-09T18:09:55.251Z,14.26
2023-10-09T18:12:23.306Z,14.30
2023-10-09T18:14:56.252Z,14.22
2023-10-09T18:17:24.670Z,14.20
2023-10-09T18:19:52.892Z,14.13
2023-10-09T18:22:20.676Z,13.85
2023-10-09T18:24:47.743Z,13.92
2023-10-09T18:27:15.570Z,14.01
2023-10-09T18:29:43.422Z,13.93
2023-10-09T18:32:10.469Z,13.98
2023-10-09T18:34:39.532Z,13.90
2023-10-09T18:37:08.320Z,13.81
2023-10-09T18:39:40.227Z,13.79
2023-10-09T18:42:10.310Z,13.78
2023-10-09T18:44:45.224Z,13.58
2023-10-09T18:47:20.455Z,13.64
2023-10-09T18:49:51.614Z,13.66
2023-10-09T18:52:19.179Z,13.67
2023-10-09T18:54:46.836Z,13.53
2023-10-09T18:57:14.079Z,13.36
2023-10-09T18:59:44.102Z,13.62
2023-10-09T19:02:12.936Z,13.65
2023-10-09T19:04:40.264Z,13.63
2023-10-09T19:07:07.337Z,13.78
2023-10-09T19:09:34.851Z,13.77
2023-10-09T19:12:02.838Z,13.53
2023-10-09T19:14:32.780Z,13.67
2023-10-09T19:17:01.410Z,13.74
2023-10-09T19:19:28.734Z,13.76
2023-10-09T19:21:55.683Z,13.76
2023-10-09T19:24:22.985Z,13.78
2023-10-09T19:26:49.942Z,13.77
2023-10-09T19:29:17.118Z,13.78
2023-10-09T19:31:44.452Z,13.77
2023-10-09T19:34:14.762Z,13.88
2023-10-09T19:36:48.179Z,13.86
2023-10-09T19:39:19.104Z,13.85
2023-10-09T19:41:46.792Z,13.88
2023-10-09T19:44:13.744Z,13.62
2023-10-09T19:46:41.080Z,13.82
2023-10-09T19:49:08.126Z,13.81
2023-10-09T19:51:35.233Z,13.77
2023-10-09T19:54:02.210Z,13.80
2023-10-09T19:56:29.349Z,13.54
2023-10-09T19:58:58.895Z,13.81
2023-10-09T20:01:27.362Z,13.84
2023-10-09T20:03:54.672Z,13.87
2023-10-09T20:06:21.994Z,13.74
2023-10-09T20:08:49.200Z,13.87
2023-10-09T20:11:16.313Z,13.71
2023-10-09T20:13:44.643Z,13.91
2023-10-09T20:16:12.560Z,13.92
2023-10-09T20:18:44.414Z,13.71
2023-10-09T20:21:13.027Z,13.80
2023-10-09T20:23:41.255Z,14.02
2023-10-09T20:26:08.550Z,14.11
2023-10-09T20:28:38.524Z,14.02
2023-10-09T20:31:05.476Z,14.14
2023-10-09T20:33:37.088Z,14.19
2023-10-09T20:36:13.462Z,14.22
2023-10-09T20:38:40.713Z,14.30
2023-10-09T20:41:11.248Z,14.27
2023-10-09T20:43:42.365Z,14.35
2023-10-09T20:46:13.579Z,14.40
2023-10-09T20:48:45.659Z,14.37
2023-10-09T20:51:19.273Z,14.14
2023-10-09T20:53:46.801Z,14.39
2023-10-09T20:56:13.931Z,14.41
2023-10-09T20:58:42.991Z,14.65
2023-10-09T21:01:17.862Z,14.45
2023-10-09T21:03:53.268Z,14.74
2023-10-09T21:06:22.481Z,14.41
2023-10-09T21:08:50.806Z,14.65
2023-10-09T21:11:18.336Z,14.67
2023-10-09T21:13:48.817Z,14.80
2023-10-09T21:16:17.443Z,14.79
2023-10-09T21:18:46.760Z,14.82
2023-10-09T21:21:15.840Z,14.78
2023-10-09T21:23:44.300Z,14.86
2023-10-09T21:26:22.771Z,14.74
2023-10-09T21:28:51.287Z,14.81
2023-10-09T21:31:20.524Z,14.77
2023-10-09T21:33:50.574Z,14.76
2023-10-09T21:36:18.671Z,14.91
2023-10-09T21:38:45.812Z,14.96
2023-10-09T21:41:14.570Z,14.90
2023-10-09T21:43:41.662Z,14.77
2023-10-09T21:46:09.388Z,14.76
2023-10-09T21:48:39.013Z,14.67
2023-10-09T21:51:09.541Z,14.71
2023-10-09T21:53:37.130Z,14.69
2023-10-09T21:56:08.989Z,14.67
2023-10-09T21:58:36.378Z,14.66
2023-10-09T22:01:04.772Z,14.73
2023-10-09T22:03:32.448Z,14.62
2023-10-09T22:06:00.292Z,14.61
2023-10-09T22:08:27.454Z,14.53
2023-10-09T22:10:55.080Z,14.45
2023-10-09T22:13:23.351Z,14.46
2023-10-09T22:15:50.680Z,14.49
2023-10-09T22:18:26.981Z,14.49
2023-10-09T22:21:06.619Z,14.46
2023-10-09T22:23:34.326Z,14.35
2023-10-09T22:26:02.130Z,14.36
2023-10-09T22:28:30.743Z,14.30
2023-10-09T22:31:04.629Z,13.99
2023-10-09T22:33:50.362Z,14.14
2023-10-09T22:36:34.415Z,14.36
2023-10-09T22:39:21.710Z,14.11
2023-10-09T22:41:55.858Z,14.46
2023-10-09T22:44:25.634Z,14.44
2023-10-09T22:46:53.404Z,14.55
2023-10-09T22:49:20.587Z,14.58
2023-10-09T22:51:53.239Z,14.72
2023-10-09T22:54:35.994Z,14.60
2023-10-09T22:57:04.596Z,14.61
2023-10-09T22:59:33.276Z,14.56
2023-10-09T23:02:00.931Z,14.60
2023-10-09T23:04:40.243Z,14.42
2023-10-09T23:07:17.286Z,14.46
2023-10-09T23:09:55.843Z,14.61
2023-10-09T23:12:27.010Z,14.52
2023-10-09T23:14:56.554Z,14.62
2023-10-09T23:17:44.267Z,14.18
2023-10-09T23:20:19.280Z,14.70
2023-10-09T23:22:49.545Z,14.35
2023-10-09T23:25:28.998Z,14.63
2023-10-09T23:28:15.301Z,14.44
2023-10-09T23:30:45.864Z,14.56
2023-10-09T23:33:22.161Z,14.50
2023-10-09T23:35:56.390Z,14.39
2023-10-09T23:38:32.934Z,14.19
2023-10-09T23:41:13.389Z,14.03
2023-10-09T23:43:47.685Z,14.13
2023-10-09T23:46:18.955Z,14.00
2023-10-09T23:48:46.179Z,13.92
2023-10-09T23:51:20.253Z,13.77
2023-10-09T23:53:53.515Z,13.90
2023-10-09T23:56:39.706Z,13.81
2023-10-09T23:59:13.033Z,13.74
